Oakley, UT (84055)

6:58 PM MDT on September 04, 2015 (GMT -0600)
Weber Canyon Road | | Change Station
CLOSE
Current Station
Personal Weather Station
Location: Oakley, UT
Elevation: 6475 ft
Nearby Weather Stations

Elev 6475 ft 40.72 °N, 111.29 °W | Updated 14 seconds ago

Partly Cloudy
Partly Cloudy
71.2 °F
Feels Like 76 °F
N
2.0
Wind Variable Wind from SSW
Gusts 13.0 mph

Today
High -- | Low -- °F
--% Chance of Precip.
Yesterday
High -- | Low -- °F
Precip. -- in
6:54 AM 7:52 PM
Waning Gibbous, 54% visible
Pressure 29.84 in
Visibility 10.0 miles
Clouds Clear
Heat Index 76 °F
Dew Point 41 °F
Humidity 33%
Rainfall 0.00 in
Snow Depth Not available.
UV 1 out of 12
Pollen 8.80 out of 12
Air Quality Not available.
Flu Activity Not available.
METAR K36U 050035Z AUTO 24008KT 10SM CLR 25/00 A2984 RMK AO2 PWINO
Pressure 29.84 in
Visibility 10.0 miles
Clouds Clear
Heat Index 76 °F
Dew Point 41 °F
Humidity 33%
Rainfall 0.00 in
Snow Depth Not available.
UV 1 out of 12
Pollen 8.80 out of 12
Air Quality Not available.
Flu Activity Not available.
METAR K36U 050035Z AUTO 24008KT 10SM CLR 25/00 A2984 RMK AO2 PWINO
Nowcast | as of 5:23 PM MDT on September 4, 2015

Rain showers and thunderstorms were scattered across parts of northern Utah early this evening. The strongest thunderstorms were scattered around Scofield Reservoir...Duchesne...and north of Brigham City. Expect gusty wind...dangerous lightning...and brief heavy rain with the thunderstorms. The rain showers and thunderstorms were moving northeast and will continue into the evening hours.

×

10-Day Weather Forecast

×

Almanac

Astronomy

Sep. 04, 2015 Rise Set
Actual Time
Civil Twilight
Nautical Twilight
Astronomical Twilight
Moon
Length of Visible Light
Length of Day
Tomorrow will be .
, % of the Moon is Illuminated

Today's Extremes

State Highs State Lows

Community

WunderPhotos

Upload Photos

1,852,367 photos uploaded!

WunderBlogs® & News

Nearby

Air Quality

  Air Quality AQ Index Pollutant
Not available.

Snow Depth

Station Depth Elevation

Earthquake Activity

City Distance Mag. Time & Date
Minimum magnitude displayed is 2.5.

Coastal Water Temperatures

Place Temperature

Stations

Nearby Weather Stations

Station Location Temp. Windchill Dew Point Humidity Wind Precip. Elev Updated Type